Time;durP1;ratioP1;P1;durP2;ratioP2;P2;SDS_P1;SDS_P2;PMS_P1;PMS_P2;Temp;Humidity;BMP_temperature;BMP_pressure;BME280_temperature;BME280_humidity;BME280_pressure;Samples;Min_cycle;Max_cycle;Signal;HPM_P1;HPM_P2
2021/09/30 00:00:41;;;;;;;2.28;0.80;;;8.90;80.10;;;;;;5072731;28;20024;-74
2021/09/30 00:03:10;;;;;;;2.63;1.00;;;8.80;80.20;;;;;;5072526;28;20029;-74
2021/09/30 00:05:38;;;;;;;1.63;0.70;;;8.80;80.40;;;;;;5072406;28;20035;-74
2021/09/30 00:08:05;;;;;;;2.53;0.57;;;8.90;80.50;;;;;;5072528;28;20062;-74
2021/09/30 00:10:31;;;;;;;1.23;0.47;;;8.90;80.50;;;;;;5072525;28;20495;-75
2021/09/30 00:13:00;;;;;;;3.08;0.75;;;8.90;80.20;;;;;;5072421;28;20048;-74
2021/09/30 00:40:33;;;;;;;1.52;0.60;;;8.70;81.10;;;;;;5066649;28;20047;-75
2021/09/30 00:46:00;;;;;;;2.97;0.93;;;8.70;81.10;;;;;;5075489;28;20097;-75
2021/09/30 00:51:26;;;;;;;5.57;0.73;;;8.60;80.90;;;;;;5075576;28;20365;-75
2021/09/30 00:54:13;;;;;;;2.58;0.60;;;8.60;81.10;;;;;;5075238;28;20106;-75
2021/09/30 02:18:25;;;;;;;5.78;2.28;;;8.00;82.20;;;;;;5074017;28;20055;-75
2021/09/30 02:26:15;;;;;;;5.68;2.72;;;7.70;83.20;;;;;;5073722;28;20103;-74
2021/09/30 02:34:43;;;;;;;4.80;2.50;;;7.60;83.70;;;;;;5073297;28;20084;-74
2021/09/30 02:34:54;;;;;;;4.43;1.80;;;7.50;84.00;;;;;;5073561;28;20127;-75
2021/09/30 02:58:03;;;;;;;3.20;1.42;;;7.50;84.40;;;;;;5073572;28;20592;-75
2021/09/30 02:59:38;;;;;;;5.82;1.10;;;7.50;83.60;;;;;;5072975;28;20031;-75
2021/09/30 03:02:05;;;;;;;5.18;0.90;;;7.30;83.70;;;;;;5073163;28;20423;-74
2021/09/30 03:04:32;;;;;;;3.33;1.30;;;7.40;84.10;;;;;;5073283;28;20013;-74
2021/09/30 03:06:59;;;;;;;6.40;1.50;;;7.30;84.10;;;;;;5072943;28;20028;-75
2021/09/30 03:09:38;;;;;;;3.42;1.35;;;7.30;84.20;;;;;;5073311;28;20032;-75
2021/09/30 03:12:17;;;;;;;2.25;1.08;;;7.30;84.10;;;;;;5072960;28;20024;-74
2021/09/30 03:14:47;;;;;;;5.05;1.10;;;7.20;84.20;;;;;;5072952;28;20054;-75
2021/09/30 03:17:19;;;;;;;2.70;0.82;;;7.20;84.30;;;;;;5073126;28;20071;-75
2021/09/30 03:19:56;;;;;;;1.98;0.75;;;7.20;84.60;;;;;;5072803;28;20017;-75
2021/09/30 03:22:22;;;;;;;2.42;0.85;;;7.20;84.40;;;;;;5072935;28;20027;-74
2021/09/30 03:24:50;;;;;;;3.30;0.65;;;7.10;84.60;;;;;;5072895;28;20493;-74
2021/09/30 03:27:17;;;;;;;2.45;0.60;;;7.10;84.90;;;;;;5072788;28;20020;-74
2021/09/30 03:29:43;;;;;;;3.80;1.20;;;7.20;84.80;;;;;;5072970;28;20016;-75
2021/09/30 03:32:10;;;;;;;2.92;1.15;;;7.20;84.70;;;;;;5072928;28;20031;-75
2021/09/30 03:34:36;;;;;;;1.58;0.88;;;7.10;84.80;;;;;;5077483;28;20027;-75
2021/09/30 03:37:04;;;;;;;4.97;0.70;;;7.10;85.00;;;;;;5096061;28;20031;-75
2021/09/30 03:39:30;;;;;;;7.13;0.98;;;7.10;84.90;;;;;;5082792;28;20028;-75
2021/09/30 03:41:56;;;;;;;3.50;0.82;;;7.10;84.80;;;;;;5073451;28;20032;-75
2021/09/30 03:44:22;;;;;;;4.07;0.90;;;7.10;84.60;;;;;;5072642;28;20025;-75
2021/09/30 03:46:51;;;;;;;4.70;0.85;;;7.00;84.60;;;;;;5072595;28;20035;-75
2021/09/30 03:49:35;;;;;;;4.25;0.80;;;7.00;84.70;;;;;;5072495;28;20494;-75
2021/09/30 03:52:07;;;;;;;4.05;0.77;;;7.00;84.40;;;;;;5072615;28;20053;-75
2021/09/30 03:59:27;;;;;;;9.32;1.25;;;7.00;84.60;;;;;;5076739;28;20029;-74
2021/09/30 04:01:59;;;;;;;2.55;1.00;;;7.00;84.70;;;;;;5076545;28;20051;-74
2021/09/30 04:04:33;;;;;;;1.73;0.60;;;7.00;84.80;;;;;;5076598;28;20020;-74
2021/09/30 04:07:05;;;;;;;4.25;1.00;;;6.90;84.80;;;;;;5076104;28;20017;-74
2021/09/30 04:09:33;;;;;;;2.40;0.50;;;6.90;84.90;;;;;;5076086;28;20076;-74
2021/09/30 04:12:04;;;;;;;2.83;0.70;;;6.90;85.00;;;;;;5076048;28;20021;-74
2021/09/30 04:14:30;;;;;;;6.35;0.95;;;6.80;84.80;;;;;;5076204;28;20384;-74
2021/09/30 04:16:56;;;;;;;6.75;1.60;;;6.80;85.00;;;;;;5076186;28;20033;-74
2021/09/30 04:19:22;;;;;;;9.60;2.45;;;6.80;85.10;;;;;;5076084;28;20384;-74
2021/09/30 04:21:49;;;;;;;7.82;3.17;;;6.80;84.80;;;;;;5075999;28;20031;-74
2021/09/30 04:24:16;;;;;;;5.03;1.67;;;6.80;84.70;;;;;;5075978;28;20477;-74
2021/09/30 04:26:42;;;;;;;4.63;1.23;;;6.70;85.00;;;;;;5076007;28;20047;-74
2021/09/30 04:29:07;;;;;;;4.50;1.20;;;6.70;84.60;;;;;;5075883;28;20025;-74
2021/09/30 04:31:33;;;;;;;7.53;1.30;;;6.70;84.80;;;;;;5075734;28;20024;-74
2021/09/30 04:33:59;;;;;;;4.88;0.93;;;6.70;84.70;;;;;;5075855;28;20115;-74
2021/09/30 04:36:25;;;;;;;2.83;1.00;;;6.70;84.80;;;;;;5075836;28;20040;-74
2021/09/30 04:38:51;;;;;;;3.63;1.05;;;6.70;84.70;;;;;;5075855;28;20524;-74
2021/09/30 04:41:18;;;;;;;5.55;1.63;;;6.60;84.70;;;;;;5075588;28;20033;-74
2021/09/30 04:43:45;;;;;;;4.45;1.20;;;6.60;84.90;;;;;;5075467;28;20024;-74
2021/09/30 04:46:12;;;;;;;3.40;0.82;;;6.60;84.90;;;;;;5075649;28;20113;-74
2021/09/30 04:48:38;;;;;;;1.70;0.90;;;6.60;85.00;;;;;;5075560;28;20104;-74
2021/09/30 04:51:03;;;;;;;2.75;0.90;;;6.60;85.20;;;;;;5074038;28;20444;-74
2021/09/30 04:53:29;;;;;;;2.50;1.00;;;6.60;85.10;;;;;;5075259;28;20063;-74
2021/09/30 04:55:54;;;;;;;2.17;0.70;;;6.70;85.10;;;;;;5075020;28;20068;-74
2021/09/30 04:58:20;;;;;;;2.70;1.10;;;6.60;85.10;;;;;;5075195;28;20026;-74
2021/09/30 05:00:45;;;;;;;5.05;1.10;;;6.60;85.40;;;;;;5075089;28;20040;-74
2021/09/30 05:03:11;;;;;;;4.97;0.90;;;6.60;85.20;;;;;;5075246;28;20066;-74
2021/09/30 05:05:37;;;;;;;6.60;1.08;;;6.50;85.40;;;;;;5080240;28;20035;-75
2021/09/30 05:08:03;;;;;;;4.93;1.10;;;6.40;85.60;;;;;;5073607;28;20085;-75
2021/09/30 05:10:33;;;;;;;4.28;1.33;;;6.40;85.60;;;;;;5074942;28;20021;-74
2021/09/30 05:13:08;;;;;;;7.75;1.05;;;6.40;85.50;;;;;;5077241;28;20480;-74
2021/09/30 05:15:36;;;;;;;5.10;1.60;;;6.40;85.60;;;;;;5074941;28;20417;-74
2021/09/30 05:18:02;;;;;;;3.28;1.27;;;6.40;85.60;;;;;;5074654;28;20016;-74
2021/09/30 05:20:28;;;;;;;4.47;1.10;;;6.30;85.60;;;;;;5074712;28;20028;-75
2021/09/30 05:22:54;;;;;;;2.78;1.08;;;6.30;86.00;;;;;;5074252;28;20024;-74
2021/09/30 05:25:20;;;;;;;2.10;1.20;;;6.20;86.00;;;;;;5073933;28;20107;-74
2021/09/30 05:27:46;;;;;;;5.03;1.38;;;6.20;86.00;;;;;;5074373;28;20076;-75
2021/09/30 05:30:11;;;;;;;8.02;1.45;;;6.20;85.90;;;;;;5074008;28;20032;-75
2021/09/30 05:32:37;;;;;;;7.53;1.65;;;6.10;86.00;;;;;;5074144;28;20376;-75
2021/09/30 05:35:03;;;;;;;7.53;1.58;;;6.20;85.90;;;;;;5073443;28;20098;-75
2021/09/30 05:37:29;;;;;;;3.55;1.23;;;6.20;85.90;;;;;;5074106;28;20028;-75
2021/09/30 05:39:56;;;;;;;3.72;1.40;;;6.20;85.90;;;;;;5074267;28;20492;-75
2021/09/30 05:42:25;;;;;;;6.20;1.98;;;6.20;85.90;;;;;;5074107;28;20033;-75
2021/09/30 05:44:51;;;;;;;7.35;1.73;;;6.20;85.80;;;;;;5074393;28;20358;-76
2021/09/30 05:47:18;;;;;;;5.07;1.45;;;6.30;85.70;;;;;;5074231;28;20025;-75
2021/09/30 05:49:43;;;;;;;5.07;1.65;;;6.30;85.60;;;;;;5074303;28;20028;-76
2021/09/30 05:52:09;;;;;;;4.80;1.60;;;6.40;85.40;;;;;;5073804;28;20044;-77
2021/09/30 05:54:35;;;;;;;8.45;2.00;;;6.40;85.80;;;;;;5074137;28;20430;-76
2021/09/30 05:57:00;;;;;;;3.90;1.55;;;6.40;85.90;;;;;;5072686;28;20120;-76
2021/09/30 05:59:26;;;;;;;8.07;1.95;;;6.50;85.20;;;;;;5074162;28;20055;-76
2021/09/30 06:12:23;;;;;;;5.03;1.17;;;6.50;84.50;;;;;;5073866;28;20116;-76
2021/09/30 06:14:49;;;;;;;5.25;1.55;;;6.50;85.00;;;;;;5073857;28;20113;-77
2021/09/30 06:17:15;;;;;;;3.33;1.15;;;6.60;84.90;;;;;;5073704;28;20032;-77
2021/09/30 06:19:41;;;;;;;7.85;1.33;;;6.70;84.70;;;;;;5073172;28;20024;-77
2021/09/30 06:22:07;;;;;;;6.15;1.70;;;6.70;84.40;;;;;;5073604;28;20032;-77
2021/09/30 06:24:34;;;;;;;5.38;1.40;;;6.80;84.20;;;;;;5073582;28;20381;-81
2021/09/30 06:27:00;;;;;;;6.18;1.33;;;6.80;83.90;;;;;;5074492;28;20028;-80
2021/09/30 06:29:26;;;;;;;4.82;1.88;;;6.90;83.60;;;;;;5073487;28;20035;-77
2021/09/30 06:31:52;;;;;;;4.35;1.67;;;7.00;83.50;;;;;;5073327;28;20069;-78
2021/09/30 06:34:18;;;;;;;6.95;1.63;;;7.00;83.20;;;;;;5073439;28;20338;-78
2021/09/30 06:36:43;;;;;;;3.90;2.13;;;7.10;83.20;;;;;;5072020;28;20039;-77
2021/09/30 06:39:09;;;;;;;5.32;2.15;;;7.30;82.80;;;;;;5073494;28;20016;-77
2021/09/30 06:41:35;;;;;;;7.72;2.00;;;7.40;82.70;;;;;;5073452;28;20032;-77
2021/09/30 06:44:01;;;;;;;6.00;2.28;;;7.50;82.40;;;;;;5073488;28;20043;-77
2021/09/30 06:46:26;;;;;;;5.45;1.83;;;7.70;82.00;;;;;;5073297;28;20036;-77
2021/09/30 06:48:52;;;;;;;15.70;2.97;;;7.80;81.40;;;;;;5073175;28;20016;-78
2021/09/30 06:51:18;;;;;;;11.68;2.30;;;8.10;87.90;;;;;;5073311;28;20417;-77
2021/09/30 06:53:43;;;;;;;8.75;1.90;;;8.50;91.70;;;;;;5072931;28;20515;-78
2021/09/30 06:56:14;;;;;;;4.68;1.70;;;8.80;87.00;;;;;;5072803;28;20135;-78
2021/09/30 06:58:44;;;;;;;8.20;1.95;;;9.10;84.90;;;;;;5072872;28;20499;-78
2021/09/30 07:01:10;;;;;;;7.38;1.80;;;9.40;81.60;;;;;;5072936;28;20103;-76
2021/09/30 07:03:36;;;;;;;6.57;1.25;;;9.60;79.10;;;;;;5072935;28;20469;-77
2021/09/30 07:06:02;;;;;;;3.45;1.70;;;9.80;78.50;;;;;;5072980;28;20035;-78
2021/09/30 07:08:27;;;;;;;4.60;1.50;;;9.90;76.40;;;;;;5072838;28;20081;-77
2021/09/30 07:10:53;;;;;;;9.85;2.00;;;10.10;77.40;;;;;;5073350;28;20203;-77
2021/09/30 07:13:19;;;;;;;3.28;1.10;;;10.30;74.90;;;;;;5073800;28;20112;-76
2021/09/30 07:15:44;;;;;;;3.08;1.50;;;10.30;75.00;;;;;;5097073;28;20096;-77
2021/09/30 07:18:18;;;;;;;3.75;1.40;;;10.40;73.20;;;;;;5092723;28;20028;-76
2021/09/30 07:20:44;;;;;;;5.80;1.70;;;10.40;73.00;;;;;;5072748;28;20039;-76
2021/09/30 07:23:09;;;;;;;6.82;1.52;;;10.50;72.60;;;;;;5072631;28;20020;-76
2021/09/30 07:25:35;;;;;;;9.65;1.60;;;10.40;71.80;;;;;;5072375;28;20020;-76
2021/09/30 07:28:01;;;;;;;2.45;1.27;;;10.40;72.60;;;;;;5072328;28;20020;-77
2021/09/30 07:30:26;;;;;;;7.45;1.30;;;10.50;72.80;;;;;;5070246;28;20531;-77
2021/09/30 07:32:52;;;;;;;3.65;1.20;;;10.60;71.80;;;;;;5072242;28;20051;-76
2021/09/30 07:35:17;;;;;;;6.68;1.50;;;10.70;72.70;;;;;;5072130;28;20041;-76
2021/09/30 07:37:45;;;;;;;5.45;1.63;;;10.90;71.80;;;;;;5072377;28;20052;-76
2021/09/30 07:40:14;;;;;;;3.95;1.27;;;11.00;71.70;;;;;;5072234;28;20061;-76
2021/09/30 07:42:40;;;;;;;5.72;1.52;;;11.10;71.70;;;;;;5072260;28;20465;-76
2021/09/30 07:45:06;;;;;;;6.88;1.50;;;11.20;70.40;;;;;;5072447;28;20039;-76
2021/09/30 07:47:32;;;;;;;6.20;1.23;;;11.40;70.70;;;;;;5072374;28;20521;-76
2021/09/30 07:49:57;;;;;;;1.95;1.20;;;11.50;70.10;;;;;;5072200;28;20024;-77
2021/09/30 07:52:23;;;;;;;3.75;1.35;;;11.60;70.00;;;;;;5072136;28;20409;-77
2021/09/30 07:54:49;;;;;;;4.68;1.45;;;11.80;69.60;;;;;;5072531;28;20043;-76
2021/09/30 07:57:15;;;;;;;4.20;1.33;;;11.90;68.90;;;;;;5072261;28;20025;-77
2021/09/30 07:59:41;;;;;;;5.45;1.20;;;12.10;68.00;;;;;;5072321;28;20086;-76
2021/09/30 08:02:07;;;;;;;7.05;1.33;;;12.10;67.60;;;;;;5072442;28;20047;-77
2021/09/30 08:04:32;;;;;;;6.55;1.23;;;12.10;67.40;;;;;;5072352;28;20473;-76
2021/09/30 08:06:58;;;;;;;2.38;0.85;;;12.20;67.40;;;;;;5072409;28;20529;-77
2021/09/30 08:09:24;;;;;;;2.22;0.85;;;12.40;66.80;;;;;;5072539;28;20104;-76
2021/09/30 08:11:49;;;;;;;4.95;1.33;;;12.60;67.10;;;;;;5072212;28;20035;-76
2021/09/30 08:14:15;;;;;;;2.15;0.70;;;12.80;66.60;;;;;;5071123;28;20025;-76
2021/09/30 08:16:41;;;;;;;2.88;0.73;;;13.00;65.30;;;;;;5072326;28;20064;-76
2021/09/30 08:19:06;;;;;;;4.47;1.08;;;13.20;64.00;;;;;;5072130;28;20027;-76
2021/09/30 08:21:32;;;;;;;4.65;0.93;;;13.40;62.40;;;;;;5072205;28;20035;-77
2021/09/30 08:23:58;;;;;;;7.78;1.17;;;13.60;62.00;;;;;;5072079;28;20138;-77
2021/09/30 08:26:24;;;;;;;6.38;0.82;;;13.80;58.70;;;;;;5072214;28;20107;-77
2021/09/30 08:28:51;;;;;;;4.85;0.70;;;13.90;56.90;;;;;;5072021;28;20024;-77
2021/09/30 08:31:19;;;;;;;3.90;0.70;;;14.00;57.70;;;;;;5072090;28;20384;-78
2021/09/30 08:33:45;;;;;;;5.43;0.90;;;14.10;56.60;;;;;;5071995;28;20087;-79
2021/09/30 08:36:13;;;;;;;3.00;0.52;;;14.10;55.50;;;;;;5071762;28;20118;-78
2021/09/30 08:38:41;;;;;;;3.53;0.60;;;14.30;54.90;;;;;;5071810;28;20048;-77
2021/09/30 08:41:08;;;;;;;4.60;0.70;;;14.30;54.10;;;;;;5071884;28;20115;-77
2021/09/30 08:43:34;;;;;;;3.10;0.60;;;14.30;53.70;;;;;;5075364;28;20021;-78
2021/09/30 08:46:00;;;;;;;2.20;0.47;;;14.40;52.10;;;;;;5075105;28;20024;-76
2021/09/30 08:48:25;;;;;;;4.13;0.60;;;14.50;51.40;;;;;;5074753;28;20108;-76
2021/09/30 08:50:51;;;;;;;2.30;0.45;;;14.60;50.20;;;;;;5075167;28;20086;-78
2021/09/30 08:53:17;;;;;;;2.20;0.60;;;14.70;49.80;;;;;;5075011;28;20151;-76
2021/09/30 08:55:43;;;;;;;1.33;0.50;;;14.80;49.90;;;;;;5075135;28;20376;-76
2021/09/30 08:58:09;;;;;;;2.10;0.40;;;14.90;50.30;;;;;;5075137;28;20119;-78
2021/09/30 09:00:38;;;;;;;5.50;0.88;;;15.00;50.20;;;;;;5075179;28;20040;-77
2021/09/30 09:03:04;;;;;;;3.65;0.50;;;15.10;50.20;;;;;;5075024;28;20074;-77
2021/09/30 09:05:30;;;;;;;2.90;0.63;;;15.20;50.40;;;;;;5074988;28;20032;-78
2021/09/30 09:08:04;;;;;;;5.78;0.65;;;15.20;49.90;;;;;;5075074;28;20023;-78
2021/09/30 09:10:32;;;;;;;2.80;0.60;;;15.30;50.20;;;;;;5074991;28;20039;-79
2021/09/30 09:13:14;;;;;;;2.55;0.52;;;15.20;48.20;;;;;;5075084;28;20107;-78
2021/09/30 09:15:42;;;;;;;3.33;0.57;;;15.30;48.10;;;;;;5073585;28;20032;-78
2021/09/30 09:18:29;;;;;;;2.28;0.50;;;15.40;48.00;;;;;;5073399;28;20035;-79
2021/09/30 09:21:15;;;;;;;1.38;0.30;;;15.50;46.70;;;;;;5073190;28;20021;-79
2021/09/30 09:23:56;;;;;;;3.42;0.65;;;15.50;45.70;;;;;;5074687;28;20127;-79
2021/09/30 09:26:33;;;;;;;1.88;0.43;;;15.50;47.50;;;;;;5074880;28;20095;-79
2021/09/30 09:29:02;;;;;;;5.47;0.55;;;15.70;47.80;;;;;;5074312;28;20120;-78
2021/09/30 09:31:30;;;;;;;3.28;0.68;;;15.60;44.90;;;;;;5074156;28;20060;-78
2021/09/30 09:33:55;;;;;;;3.75;0.57;;;15.20;46.50;;;;;;5072808;28;20518;-78
2021/09/30 09:36:25;;;;;;;2.22;0.50;;;15.30;47.50;;;;;;5074314;28;20037;-79
2021/09/30 09:38:55;;;;;;;3.58;0.70;;;15.50;46.90;;;;;;5074128;28;20062;-78
2021/09/30 09:41:22;;;;;;;2.47;0.52;;;15.40;46.20;;;;;;5073961;28;20032;-78
2021/09/30 09:43:49;;;;;;;17.40;2.00;;;15.10;46.30;;;;;;5073752;28;20481;-79
2021/09/30 09:46:18;;;;;;;3.05;0.57;;;14.80;48.60;;;;;;5073094;28;20031;-79
2021/09/30 09:49:08;;;;;;;8.18;0.68;;;14.80;48.60;;;;;;5074368;28;20032;-77
2021/09/30 09:51:47;;;;;;;2.72;0.70;;;14.90;47.60;;;;;;5065696;28;20051;-78
2021/09/30 09:54:17;;;;;;;3.17;0.85;;;15.30;46.60;;;;;;5072305;28;20020;-78
2021/09/30 09:56:43;;;;;;;2.10;0.68;;;15.80;45.60;;;;;;5072337;28;20032;-78
2021/09/30 09:59:09;;;;;;;1.98;0.50;;;16.30;44.30;;;;;;5072413;28;20094;-79
2021/09/30 10:01:45;;;;;;;6.60;1.02;;;16.60;42.30;;;;;;5072278;28;20020;-78
2021/09/30 10:04:12;;;;;;;2.58;0.55;;;17.00;42.10;;;;;;5071070;28;20028;-77
2021/09/30 10:06:39;;;;;;;2.42;0.65;;;17.30;42.70;;;;;;5072914;28;20023;-78
2021/09/30 10:09:07;;;;;;;1.67;0.30;;;17.70;42.40;;;;;;5073590;28;20029;-78
2021/09/30 10:11:35;;;;;;;6.05;0.85;;;18.00;41.50;;;;;;5073196;28;20028;-78
2021/09/30 10:14:04;;;;;;;1.05;0.57;;;18.20;40.40;;;;;;5073140;28;20028;-78
2021/09/30 10:16:30;;;;;;;2.08;0.50;;;18.40;41.00;;;;;;5072782;28;20047;-78
2021/09/30 10:19:02;;;;;;;2.05;0.50;;;18.70;39.60;;;;;;5073298;28;20599;-76
2021/09/30 10:21:30;;;;;;;1.02;0.52;;;18.50;37.50;;;;;;5072839;28;20063;-79
2021/09/30 10:24:19;;;;;;;0.75;0.30;;;17.90;38.00;;;;;;5073348;28;20047;-80
2021/09/30 10:26:55;;;;;;;1.75;0.47;;;17.90;38.00;;;;;;5073244;28;20020;-81
2021/09/30 10:29:45;;;;;;;4.68;0.90;;;18.00;38.20;;;;;;5072710;28;20113;-80
2021/09/30 10:32:13;;;;;;;2.25;0.73;;;18.20;37.70;;;;;;5070467;28;20021;-80
2021/09/30 10:34:42;;;;;;;1.95;0.45;;;18.40;36.50;;;;;;5073300;28;20028;-81
2021/09/30 10:37:31;;;;;;;2.55;0.65;;;18.30;35.90;;;;;;5072713;28;20029;-80
2021/09/30 10:40:16;;;;;;;3.65;0.65;;;18.20;35.90;;;;;;5073250;28;20020;-80
2021/09/30 10:42:58;;;;;;;1.77;0.65;;;18.20;37.00;;;;;;5072867;28;20050;-81
2021/09/30 10:45:25;;;;;;;2.58;0.50;;;18.30;37.00;;;;;;5072420;28;20501;-80
2021/09/30 10:47:51;;;;;;;1.33;0.40;;;18.30;36.10;;;;;;5071893;28;20067;-80
2021/09/30 10:50:17;;;;;;;2.65;0.40;;;18.30;35.70;;;;;;5072132;28;20044;-81
2021/09/30 10:52:54;;;;;;;4.40;0.45;;;18.30;35.60;;;;;;5071497;28;20128;-81
2021/09/30 10:55:24;;;;;;;3.00;0.55;;;18.50;35.70;;;;;;5072239;28;20453;-80
2021/09/30 10:57:55;;;;;;;2.05;0.50;;;18.50;35.10;;;;;;5071837;28;20032;-82
2021/09/30 11:00:20;;;;;;;2.42;0.50;;;18.00;35.40;;;;;;5072370;28;20031;-80
2021/09/30 11:03:01;;;;;;;4.22;0.60;;;17.60;36.10;;;;;;5072234;28;20107;-80
2021/09/30 11:05:38;;;;;;;1.70;0.52;;;17.70;37.50;;;;;;5072155;28;20032;-80
2021/09/30 11:08:24;;;;;;;3.20;0.52;;;18.10;37.00;;;;;;5072445;28;20100;-80
2021/09/30 11:11:01;;;;;;;1.15;0.55;;;18.30;37.50;;;;;;5072203;28;20103;-79
2021/09/30 11:13:30;;;;;;;2.63;0.47;;;18.70;37.20;;;;;;5072383;28;20384;-78
2021/09/30 11:15:58;;;;;;;2.45;0.50;;;18.90;35.50;;;;;;5071482;28;20132;-80
2021/09/30 11:18:50;;;;;;;1.83;0.65;;;18.40;35.30;;;;;;5072455;28;20130;-80
2021/09/30 11:21:28;;;;;;;2.35;0.50;;;18.70;36.10;;;;;;5072565;28;20384;-79
2021/09/30 11:23:55;;;;;;;3.53;0.70;;;19.10;35.00;;;;;;5072352;28;20028;-80
2021/09/30 11:26:21;;;;;;;1.88;0.57;;;19.30;35.00;;;;;;5072390;28;20415;-79
2021/09/30 11:28:46;;;;;;;1.83;0.52;;;19.00;34.60;;;;;;5072326;28;20054;-80
2021/09/30 11:31:29;;;;;;;3.50;0.52;;;19.30;35.20;;;;;;5072212;28;20496;-80
2021/09/30 11:33:57;;;;;;;2.55;0.60;;;19.70;34.20;;;;;;5072278;28;20020;-80
2021/09/30 11:36:35;;;;;;;3.80;0.57;;;19.90;34.30;;;;;;5070377;28;20032;-79
2021/09/30 11:39:05;;;;;;;1.30;0.60;;;20.10;33.20;;;;;;5072361;28;20052;-80
2021/09/30 11:41:32;;;;;;;3.55;0.52;;;20.50;32.50;;;;;;5071969;28;20502;-77
2021/09/30 11:43:58;;;;;;;2.47;0.60;;;20.90;31.30;;;;;;5072025;28;20496;-80
2021/09/30 11:46:34;;;;;;;1.45;0.60;;;21.00;29.80;;;;;;5072118;28;20032;-76
2021/09/30 11:49:05;;;;;;;1.27;0.40;;;20.60;30.30;;;;;;5070370;28;20477;-75
2021/09/30 11:51:39;;;;;;;2.80;0.60;;;20.70;30.20;;;;;;5071672;28;20504;-75
2021/09/30 11:54:07;;;;;;;1.70;0.47;;;21.10;30.40;;;;;;5072125;28;20554;-76
2021/09/30 11:56:50;;;;;;;1.55;0.30;;;21.40;29.50;;;;;;5071995;28;20024;-76
2021/09/30 11:59:18;;;;;;;5.65;0.55;;;21.60;27.80;;;;;;5072077;28;20060;-77
2021/09/30 12:01:48;;;;;;;2.75;0.20;;;21.80;26.70;;;;;;5072134;28;20075;-76
2021/09/30 12:04:51;;;;;;;3.08;0.70;;;21.80;26.50;;;;;;5072527;28;20384;-81
2021/09/30 12:07:25;;;;;;;2.50;0.43;;;22.00;25.80;;;;;;5072351;28;20024;-79
2021/09/30 12:09:56;;;;;;;4.28;0.73;;;22.20;27.60;;;;;;5069798;28;20020;-81
2021/09/30 12:12:30;;;;;;;1.98;0.40;;;22.60;25.90;;;;;;5072257;28;20059;-80
2021/09/30 12:14:57;;;;;;;3.03;0.40;;;22.60;24.80;;;;;;5072314;28;20032;-80
2021/09/30 12:17:27;;;;;;;2.15;0.40;;;22.70;24.80;;;;;;5073893;28;20459;-80
2021/09/30 12:19:54;;;;;;;1.10;0.40;;;22.30;23.60;;;;;;5075731;28;20017;-79
2021/09/30 12:22:21;;;;;;;1.27;0.30;;;22.10;24.30;;;;;;5075796;28;20482;-78
2021/09/30 12:24:53;;;;;;;5.22;0.57;;;22.10;24.20;;;;;;5076018;28;20024;-78
2021/09/30 12:27:21;;;;;;;3.55;0.70;;;22.10;24.00;;;;;;5075937;28;20029;-78
2021/09/30 12:29:49;;;;;;;2.78;0.45;;;22.20;24.10;;;;;;5076003;28;20069;-78
2021/09/30 12:32:20;;;;;;;4.97;0.50;;;22.40;24.60;;;;;;5075941;28;20103;-79
2021/09/30 12:34:57;;;;;;;3.00;0.30;;;22.70;23.90;;;;;;5076205;28;20020;-79
2021/09/30 12:37:30;;;;;;;1.42;0.50;;;22.90;23.50;;;;;;5075823;28;20029;-77
2021/09/30 12:40:09;;;;;;;2.50;0.22;;;23.20;23.30;;;;;;5075921;28;20383;-78
2021/09/30 12:42:35;;;;;;;1.20;0.40;;;23.30;22.50;;;;;;5074127;28;20037;-77
2021/09/30 12:45:01;;;;;;;2.83;0.52;;;22.50;21.10;;;;;;5075899;28;20092;-75
2021/09/30 12:47:32;;;;;;;1.45;0.45;;;20.50;23.20;;;;;;5075571;28;20520;-78
2021/09/30 12:50:07;;;;;;;1.85;0.40;;;20.30;25.20;;;;;;5075404;28;20488;-78
2021/09/30 12:52:33;;;;;;;1.40;0.47;;;20.40;24.40;;;;;;5073688;28;20049;-76
2021/09/30 12:55:02;;;;;;;2.33;0.38;;;20.70;24.70;;;;;;5075082;28;20372;-76
2021/09/30 12:57:33;;;;;;;0.93;0.40;;;21.10;25.40;;;;;;5075497;28;20039;-76
2021/09/30 13:00:10;;;;;;;1.65;0.20;;;21.70;25.20;;;;;;5075231;28;20025;-76
2021/09/30 13:02:37;;;;;;;1.58;0.22;;;22.00;23.20;;;;;;5074384;28;20021;-76
2021/09/30 13:05:03;;;;;;;1.20;0.40;;;22.40;22.20;;;;;;5075121;28;20109;-76
2021/09/30 13:07:46;;;;;;;2.28;0.40;;;22.70;22.40;;;;;;5074993;28;20028;-76
2021/09/30 13:10:14;;;;;;;2.22;0.30;;;23.00;21.30;;;;;;5074940;28;20099;-76
2021/09/30 13:13:00;;;;;;;1.30;0.60;;;23.20;21.50;;;;;;5074547;28;20025;-76
2021/09/30 13:15:45;;;;;;;3.13;0.35;;;23.40;21.60;;;;;;5074816;28;20503;-76
2021/09/30 13:18:14;;;;;;;1.17;0.20;;;23.50;20.70;;;;;;5074988;28;20103;-76
2021/09/30 13:20:42;;;;;;;1.23;0.40;;;23.70;20.50;;;;;;5074684;28;20507;-76
2021/09/30 13:23:09;;;;;;;0.80;0.30;;;23.70;20.00;;;;;;5074537;28;20083;-75
2021/09/30 13:25:35;;;;;;;1.00;0.43;;;23.60;19.70;;;;;;5074728;28;20071;-76
2021/09/30 13:28:01;;;;;;;2.08;0.65;;;23.80;20.00;;;;;;5073706;28;20017;-76
2021/09/30 13:30:35;;;;;;;0.77;0.30;;;23.90;19.70;;;;;;5074539;28;20027;-76
2021/09/30 13:33:02;;;;;;;1.15;0.22;;;24.00;19.10;;;;;;5074732;28;20117;-76
2021/09/30 13:35:31;;;;;;;0.73;0.28;;;24.10;19.70;;;;;;5074514;28;20028;-76
2021/09/30 13:37:57;;;;;;;2.45;0.45;;;24.40;19.30;;;;;;5074406;28;20029;-77
2021/09/30 13:40:24;;;;;;;0.40;0.25;;;24.50;18.80;;;;;;5074514;28;20024;-74
2021/09/30 13:42:50;;;;;;;1.60;0.60;;;24.50;18.40;;;;;;5074590;28;20032;-77
2021/09/30 13:45:18;;;;;;;3.50;0.60;;;23.80;18.90;;;;;;5074300;28;20027;-75
2021/09/30 13:47:44;;;;;;;2.90;0.50;;;23.80;19.40;;;;;;5073950;28;20016;-78
2021/09/30 13:50:18;;;;;;;0.63;0.30;;;23.60;19.70;;;;;;5074276;28;20028;-74
2021/09/30 13:52:46;;;;;;;3.33;0.60;;;23.50;19.60;;;;;;5074078;28;20048;-75
2021/09/30 13:55:13;;;;;;;2.13;0.60;;;23.60;19.50;;;;;;5074181;28;20812;-77
2021/09/30 13:57:39;;;;;;;2.83;0.50;;;23.00;19.80;;;;;;5073917;28;20496;-76
2021/09/30 14:00:07;;;;;;;1.65;0.38;;;22.80;20.90;;;;;;5074079;28;20031;-77
2021/09/30 14:02:34;;;;;;;1.17;0.30;;;22.80;20.90;;;;;;5074097;28;20372;-77
2021/09/30 14:05:00;;;;;;;1.23;0.40;;;22.60;21.10;;;;;;5073500;28;20023;-77
2021/09/30 14:07:26;;;;;;;0.50;0.30;;;22.70;21.10;;;;;;5072509;28;20028;-77
2021/09/30 14:09:53;;;;;;;1.55;0.40;;;23.10;21.00;;;;;;5073541;28;20027;-75
2021/09/30 14:12:19;;;;;;;3.72;0.63;;;23.20;21.00;;;;;;5073929;28;20664;-79
2021/09/30 14:14:45;;;;;;;0.95;0.43;;;23.40;21.40;;;;;;5073949;28;20037;-79
2021/09/30 14:17:11;;;;;;;1.63;0.40;;;23.20;20.70;;;;;;5073640;28;20481;-79
2021/09/30 14:19:37;;;;;;;1.58;0.47;;;23.10;21.90;;;;;;5073589;28;20017;-78
2021/09/30 14:22:03;;;;;;;0.68;0.30;;;23.60;21.70;;;;;;5073630;28;20029;-78
2021/09/30 14:24:31;;;;;;;2.05;0.50;;;24.10;20.60;;;;;;5073593;28;20020;-77
2021/09/30 14:26:57;;;;;;;2.30;0.63;;;24.40;19.80;;;;;;5073644;28;20024;-78
2021/09/30 14:29:23;;;;;;;5.32;0.63;;;24.10;19.90;;;;;;5073374;28;20063;-78
2021/09/30 14:31:49;;;;;;;0.65;0.50;;;24.20;19.30;;;;;;5072663;28;20067;-77
2021/09/30 14:34:14;;;;;;;2.03;0.30;;;24.20;19.70;;;;;;5070180;28;20048;-77
2021/09/30 14:36:40;;;;;;;2.88;0.40;;;24.30;19.50;;;;;;5073225;28;20029;-77
2021/09/30 14:39:06;;;;;;;1.50;0.50;;;24.40;19.30;;;;;;5072916;28;20021;-76
2021/09/30 14:41:33;;;;;;;1.88;0.63;;;24.70;19.20;;;;;;5072829;28;20028;-77
2021/09/30 14:43:58;;;;;;;1.17;0.38;;;25.20;19.20;;;;;;5073254;28;20432;-79
2021/09/30 14:46:24;;;;;;;2.47;0.40;;;25.70;18.70;;;;;;5072943;28;20027;-79
2021/09/30 14:48:50;;;;;;;1.77;0.55;;;26.50;18.20;;;;;;5073155;28;20039;-77
2021/09/30 14:51:16;;;;;;;1.08;0.40;;;27.10;17.20;;;;;;5073026;28;20025;-78
2021/09/30 14:53:41;;;;;;;0.77;0.35;;;26.90;16.20;;;;;;5072834;28;20072;-79
2021/09/30 14:56:08;;;;;;;1.80;0.50;;;27.40;16.40;;;;;;5072916;28;20098;-79
2021/09/30 14:58:36;;;;;;;2.85;0.60;;;27.90;15.50;;;;;;5072847;28;20024;-79
2021/09/30 15:01:04;;;;;;;3.08;0.32;;;27.90;14.80;;;;;;5072915;28;20032;-79
2021/09/30 15:03:30;;;;;;;2.75;0.70;;;28.20;14.70;;;;;;5073022;28;20086;-78
2021/09/30 15:05:55;;;;;;;1.42;0.52;;;28.80;14.40;;;;;;5072714;28;20021;-79
2021/09/30 15:08:21;;;;;;;1.30;0.38;;;29.40;14.30;;;;;;5072765;28;20025;-79
2021/09/30 15:10:47;;;;;;;1.58;0.47;;;29.90;13.50;;;;;;5072490;28;20469;-79
2021/09/30 15:13:12;;;;;;;2.03;0.50;;;30.40;13.00;;;;;;5072522;28;20381;-79
2021/09/30 15:15:38;;;;;;;1.27;0.50;;;30.00;12.70;;;;;;5073045;28;20020;-77
2021/09/30 15:18:08;;;;;;;2.45;0.80;;;30.90;12.30;;;;;;5072734;28;20021;-79
2021/09/30 15:23:05;;;;;;;2.28;0.90;;;32.80;12.20;;;;;;5072837;28;20028;-80
2021/09/30 15:25:31;;;;;;;1.00;0.75;;;33.50;11.50;;;;;;5072400;28;20286;-79
2021/09/30 15:27:59;;;;;;;4.53;0.85;;;33.90;10.90;;;;;;5072571;28;20530;-80
2021/09/30 15:30:25;;;;;;;1.48;0.70;;;34.70;9.70;;;;;;5072643;28;20048;-78
2021/09/30 15:32:53;;;;;;;3.53;1.20;;;34.40;9.30;;;;;;5072344;28;20438;-78
2021/09/30 15:35:19;;;;;;;3.05;0.93;;;34.40;9.70;;;;;;5072168;28;20066;-79
2021/09/30 15:37:45;;;;;;;2.00;0.60;;;34.70;9.30;;;;;;5072083;28;20036;-76